sensor_id;sensor_type;location;lat;lon;timestamp;P1;P2;P0
49914;PMS5003;35806;47.958;13.158;2023-05-10T00:01:26;18;18;
49914;PMS5003;35806;47.958;13.158;2023-05-10T00:03:53;21;20;
49914;PMS5003;35806;47.958;13.158;2023-05-10T00:06:21;25;23;
49914;PMS5003;35806;47.958;13.158;2023-05-10T00:08:48;19;17;
49914;PMS5003;35806;47.958;13.158;2023-05-10T00:11:15;28;26;
49914;PMS5003;35806;47.958;13.158;2023-05-10T00:13:42;24;23;
49914;PMS5003;35806;47.958;13.158;2023-05-10T00:16:10;20;19;
49914;PMS5003;35806;47.958;13.158;2023-05-10T00:18:37;22;20;
49914;PMS5003;35806;47.958;13.158;2023-05-10T00:21:05;18;17;
49914;PMS5003;35806;47.958;13.158;2023-05-10T00:23:32;20;18;
49914;PMS5003;35806;47.958;13.158;2023-05-10T00:26:00;23;23;
49914;PMS5003;35806;47.958;13.158;2023-05-10T00:28:27;17;16;
49914;PMS5003;35806;47.958;13.158;2023-05-10T00:30:55;20;17;
49914;PMS5003;35806;47.958;13.158;2023-05-10T00:33:22;19;18;
49914;PMS5003;35806;47.958;13.158;2023-05-10T00:35:49;23;19;
49914;PMS5003;35806;47.958;13.158;2023-05-10T00:38:17;21;21;
49914;PMS5003;35806;47.958;13.158;2023-05-10T00:40:45;25;21;
49914;PMS5003;35806;47.958;13.158;2023-05-10T00:43:12;19;19;
49914;PMS5003;35806;47.958;13.158;2023-05-10T00:45:40;18;18;
49914;PMS5003;35806;47.958;13.158;2023-05-10T00:48:07;22;17;
49914;PMS5003;35806;47.958;13.158;2023-05-10T00:50:35;22;21;
49914;PMS5003;35806;47.958;13.158;2023-05-10T00:53:03;20;18;
49914;PMS5003;35806;47.958;13.158;2023-05-10T00:55:30;15;15;
49914;PMS5003;35806;47.958;13.158;2023-05-10T00:57:57;15;12;
49914;PMS5003;35806;47.958;13.158;2023-05-10T01:16:02;6;6;
49914;PMS5003;35806;47.958;13.158;2023-05-10T01:18:30;6;6;
49914;PMS5003;35806;47.958;13.158;2023-05-10T01:21:00;5;5;
49914;PMS5003;35806;47.958;13.158;2023-05-10T01:23:44;7;6;
49914;PMS5003;35806;47.958;13.158;2023-05-10T01:26:07;7;6;
49914;PMS5003;35806;47.958;13.158;2023-05-10T01:28:50;4;4;
49914;PMS5003;35806;47.958;13.158;2023-05-10T01:31:30;4;4;
49914;PMS5003;35806;47.958;13.158;2023-05-10T01:34:18;3;3;
49914;PMS5003;35806;47.958;13.158;2023-05-10T01:36:55;3;3;
49914;PMS5003;35806;47.958;13.158;2023-05-10T01:39:29;4;3;
49914;PMS5003;35806;47.958;13.158;2023-05-10T01:42:04;3;3;
49914;PMS5003;35806;47.958;13.158;2023-05-10T01:44:39;4;3;
49914;PMS5003;35806;47.958;13.158;2023-05-10T01:47:14;2;2;
49914;PMS5003;35806;47.958;13.158;2023-05-10T01:49:47;3;3;
49914;PMS5003;35806;47.958;13.158;2023-05-10T01:52:18;2;2;
49914;PMS5003;35806;47.958;13.158;2023-05-10T01:54:49;3;3;
49914;PMS5003;35806;47.958;13.158;2023-05-10T01:57:20;2;2;
49914;PMS5003;35806;47.958;13.158;2023-05-10T01:59:52;1;1;
49914;PMS5003;35806;47.958;13.158;2023-05-10T02:02:20;2;2;
49914;PMS5003;35806;47.958;13.158;2023-05-10T02:04:48;2;2;
49914;PMS5003;35806;47.958;13.158;2023-05-10T02:07:17;4;4;
49914;PMS5003;35806;47.958;13.158;2023-05-10T02:09:45;4;4;
49914;PMS5003;35806;47.958;13.158;2023-05-10T02:12:14;5;5;
49914;PMS5003;35806;47.958;13.158;2023-05-10T02:14:43;2;2;
49914;PMS5003;35806;47.958;13.158;2023-05-10T02:17:12;4;4;
49914;PMS5003;35806;47.958;13.158;2023-05-10T02:19:41;5;5;
49914;PMS5003;35806;47.958;13.158;2023-05-10T02:22:11;6;4;
49914;PMS5003;35806;47.958;13.158;2023-05-10T02:24:39;4;4;
49914;PMS5003;35806;47.958;13.158;2023-05-10T02:27:08;3;3;
49914;PMS5003;35806;47.958;13.158;2023-05-10T02:29:36;3;2;
49914;PMS5003;35806;47.958;13.158;2023-05-10T02:32:04;3;3;
49914;PMS5003;35806;47.958;13.158;2023-05-10T02:34:33;3;3;
49914;PMS5003;35806;47.958;13.158;2023-05-10T02:37:00;5;3;
49914;PMS5003;35806;47.958;13.158;2023-05-10T02:39:30;4;4;
49914;PMS5003;35806;47.958;13.158;2023-05-10T02:41:59;3;3;
49914;PMS5003;35806;47.958;13.158;2023-05-10T02:44:28;5;4;
49914;PMS5003;35806;47.958;13.158;2023-05-10T02:46:56;3;3;
49914;PMS5003;35806;47.958;13.158;2023-05-10T02:49:24;3;3;
49914;PMS5003;35806;47.958;13.158;2023-05-10T02:51:54;4;4;
49914;PMS5003;35806;47.958;13.158;2023-05-10T02:54:27;4;4;
49914;PMS5003;35806;47.958;13.158;2023-05-10T02:56:58;4;4;
49914;PMS5003;35806;47.958;13.158;2023-05-10T02:59:26;4;3;
49914;PMS5003;35806;47.958;13.158;2023-05-10T03:01:54;5;3;
49914;PMS5003;35806;47.958;13.158;2023-05-10T03:04:21;3;3;
49914;PMS5003;35806;47.958;13.158;2023-05-10T03:06:49;7;7;
49914;PMS5003;35806;47.958;13.158;2023-05-10T03:09:16;6;6;
49914;PMS5003;35806;47.958;13.158;2023-05-10T03:11:49;6;5;
49914;PMS5003;35806;47.958;13.158;2023-05-10T03:14:26;6;6;
49914;PMS5003;35806;47.958;13.158;2023-05-10T03:17:06;4;4;
49914;PMS5003;35806;47.958;13.158;2023-05-10T03:19:43;7;7;
49914;PMS5003;35806;47.958;13.158;2023-05-10T03:22:21;8;6;
49914;PMS5003;35806;47.958;13.158;2023-05-10T03:24:53;7;7;
49914;PMS5003;35806;47.958;13.158;2023-05-10T03:27:23;5;5;
49914;PMS5003;35806;47.958;13.158;2023-05-10T03:29:53;7;7;
49914;PMS5003;35806;47.958;13.158;2023-05-10T03:32:22;7;7;
49914;PMS5003;35806;47.958;13.158;2023-05-10T03:34:49;5;5;
49914;PMS5003;35806;47.958;13.158;2023-05-10T03:37:17;5;5;
49914;PMS5003;35806;47.958;13.158;2023-05-10T03:39:45;6;6;
49914;PMS5003;35806;47.958;13.158;2023-05-10T03:42:12;4;4;
49914;PMS5003;35806;47.958;13.158;2023-05-10T03:44:40;4;4;
49914;PMS5003;35806;47.958;13.158;2023-05-10T03:47:07;9;5;
49914;PMS5003;35806;47.958;13.158;2023-05-10T03:49:35;5;5;
49914;PMS5003;35806;47.958;13.158;2023-05-10T03:52:03;2;2;
49914;PMS5003;35806;47.958;13.158;2023-05-10T03:54:31;3;3;
49914;PMS5003;35806;47.958;13.158;2023-05-10T03:56:58;3;3;
49914;PMS5003;35806;47.958;13.158;2023-05-10T03:59:31;2;2;
49914;PMS5003;35806;47.958;13.158;2023-05-10T04:01:58;4;4;
49914;PMS5003;35806;47.958;13.158;2023-05-10T04:04:26;3;3;
49914;PMS5003;35806;47.958;13.158;2023-05-10T04:06:53;4;4;
49914;PMS5003;35806;47.958;13.158;2023-05-10T04:09:26;4;4;
49914;PMS5003;35806;47.958;13.158;2023-05-10T04:11:53;2;2;
49914;PMS5003;35806;47.958;13.158;2023-05-10T04:14:21;5;4;
49914;PMS5003;35806;47.958;13.158;2023-05-10T04:16:48;3;3;
49914;PMS5003;35806;47.958;13.158;2023-05-10T04:19:16;3;3;
49914;PMS5003;35806;47.958;13.158;2023-05-10T04:21:44;3;3;
49914;PMS5003;35806;47.958;13.158;2023-05-10T04:24:11;3;3;
49914;PMS5003;35806;47.958;13.158;2023-05-10T04:26:39;1;1;
49914;PMS5003;35806;47.958;13.158;2023-05-10T04:29:06;3;3;
49914;PMS5003;35806;47.958;13.158;2023-05-10T04:31:34;2;2;
49914;PMS5003;35806;47.958;13.158;2023-05-10T04:34:01;0;0;
49914;PMS5003;35806;47.958;13.158;2023-05-10T04:36:29;1;1;
49914;PMS5003;35806;47.958;13.158;2023-05-10T04:39:07;1;1;
49914;PMS5003;35806;47.958;13.158;2023-05-10T04:41:34;2;2;
49914;PMS5003;35806;47.958;13.158;2023-05-10T04:44:07;2;0;
49914;PMS5003;35806;47.958;13.158;2023-05-10T04:46:40;1;1;
49914;PMS5003;35806;47.958;13.158;2023-05-10T04:49:07;0;0;
49914;PMS5003;35806;47.958;13.158;2023-05-10T04:51:35;0;0;
49914;PMS5003;35806;47.958;13.158;2023-05-10T04:54:02;0;0;
49914;PMS5003;35806;47.958;13.158;2023-05-10T04:56:30;0;0;
49914;PMS5003;35806;47.958;13.158;2023-05-10T04:59:03;1;0;
49914;PMS5003;35806;47.958;13.158;2023-05-10T05:01:31;0;0;
49914;PMS5003;35806;47.958;13.158;2023-05-10T05:04:03;0;0;
49914;PMS5003;35806;47.958;13.158;2023-05-10T05:06:31;0;0;
49914;PMS5003;35806;47.958;13.158;2023-05-10T05:08:58;1;1;
49914;PMS5003;35806;47.958;13.158;2023-05-10T05:11:26;1;1;
49914;PMS5003;35806;47.958;13.158;2023-05-10T05:13:53;0;0;
49914;PMS5003;35806;47.958;13.158;2023-05-10T05:16:21;3;1;
49914;PMS5003;35806;47.958;13.158;2023-05-10T05:18:48;1;1;
49914;PMS5003;35806;47.958;13.158;2023-05-10T05:21:17;2;2;
49914;PMS5003;35806;47.958;13.158;2023-05-10T05:23:45;2;2;
49914;PMS5003;35806;47.958;13.158;2023-05-10T05:26:13;1;1;
49914;PMS5003;35806;47.958;13.158;2023-05-10T05:28:40;1;1;
49914;PMS5003;35806;47.958;13.158;2023-05-10T05:31:08;3;3;
49914;PMS5003;35806;47.958;13.158;2023-05-10T05:33:36;4;4;
49914;PMS5003;35806;47.958;13.158;2023-05-10T05:36:04;3;3;
49914;PMS5003;35806;47.958;13.158;2023-05-10T05:38:32;2;2;
49914;PMS5003;35806;47.958;13.158;2023-05-10T05:41:00;4;4;
49914;PMS5003;35806;47.958;13.158;2023-05-10T05:43:27;2;2;
49914;PMS5003;35806;47.958;13.158;2023-05-10T05:45:55;4;3;
49914;PMS5003;35806;47.958;13.158;2023-05-10T05:48:22;4;4;
49914;PMS5003;35806;47.958;13.158;2023-05-10T05:50:53;3;2;
49914;PMS5003;35806;47.958;13.158;2023-05-10T05:53:21;3;2;
49914;PMS5003;35806;47.958;13.158;2023-05-10T05:55:52;7;5;
49914;PMS5003;35806;47.958;13.158;2023-05-10T05:58:19;3;3;
49914;PMS5003;35806;47.958;13.158;2023-05-10T06:00:47;3;3;
49914;PMS5003;35806;47.958;13.158;2023-05-10T06:03:15;4;4;
49914;PMS5003;35806;47.958;13.158;2023-05-10T06:05:42;3;3;
49914;PMS5003;35806;47.958;13.158;2023-05-10T06:08:10;3;3;
49914;PMS5003;35806;47.958;13.158;2023-05-10T06:10:37;5;5;
49914;PMS5003;35806;47.958;13.158;2023-05-10T06:13:04;5;5;
49914;PMS5003;35806;47.958;13.158;2023-05-10T06:15:32;4;4;
49914;PMS5003;35806;47.958;13.158;2023-05-10T06:17:59;6;5;
49914;PMS5003;35806;47.958;13.158;2023-05-10T06:20:27;7;7;
49914;PMS5003;35806;47.958;13.158;2023-05-10T06:22:54;4;4;
49914;PMS5003;35806;47.958;13.158;2023-05-10T06:25:22;4;4;
49914;PMS5003;35806;47.958;13.158;2023-05-10T06:27:49;3;3;
49914;PMS5003;35806;47.958;13.158;2023-05-10T06:30:17;3;3;
49914;PMS5003;35806;47.958;13.158;2023-05-10T06:32:45;3;3;
49914;PMS5003;35806;47.958;13.158;2023-05-10T06:35:12;4;4;
49914;PMS5003;35806;47.958;13.158;2023-05-10T06:37:39;3;3;
49914;PMS5003;35806;47.958;13.158;2023-05-10T06:40:07;3;3;
49914;PMS5003;35806;47.958;13.158;2023-05-10T06:42:35;4;4;
49914;PMS5003;35806;47.958;13.158;2023-05-10T06:45:08;4;4;
49914;PMS5003;35806;47.958;13.158;2023-05-10T06:47:37;3;3;
49914;PMS5003;35806;47.958;13.158;2023-05-10T06:50:05;2;2;
49914;PMS5003;35806;47.958;13.158;2023-05-10T06:52:33;5;3;
49914;PMS5003;35806;47.958;13.158;2023-05-10T06:55:01;3;3;
49914;PMS5003;35806;47.958;13.158;2023-05-10T06:57:29;4;4;
49914;PMS5003;35806;47.958;13.158;2023-05-10T06:59:58;4;4;
49914;PMS5003;35806;47.958;13.158;2023-05-10T07:02:25;2;2;
49914;PMS5003;35806;47.958;13.158;2023-05-10T07:04:53;4;3;
49914;PMS5003;35806;47.958;13.158;2023-05-10T07:07:20;5;4;
49914;PMS5003;35806;47.958;13.158;2023-05-10T07:09:48;14;9;
49914;PMS5003;35806;47.958;13.158;2023-05-10T07:12:15;5;5;
49914;PMS5003;35806;47.958;13.158;2023-05-10T07:14:43;3;3;
49914;PMS5003;35806;47.958;13.158;2023-05-10T07:17:11;2;2;
49914;PMS5003;35806;47.958;13.158;2023-05-10T07:19:38;3;3;
49914;PMS5003;35806;47.958;13.158;2023-05-10T07:28:32;3;3;
49914;PMS5003;35806;47.958;13.158;2023-05-10T07:30:59;13;12;
49914;PMS5003;35806;47.958;13.158;2023-05-10T07:33:26;3;3;
49914;PMS5003;35806;47.958;13.158;2023-05-10T07:35:53;2;2;
49914;PMS5003;35806;47.958;13.158;2023-05-10T07:38:20;2;2;
49914;PMS5003;35806;47.958;13.158;2023-05-10T07:40:48;2;2;
49914;PMS5003;35806;47.958;13.158;2023-05-10T07:43:15;4;2;
49914;PMS5003;35806;47.958;13.158;2023-05-10T07:45:43;2;2;
49914;PMS5003;35806;47.958;13.158;2023-05-10T07:48:11;2;2;
49914;PMS5003;35806;47.958;13.158;2023-05-10T07:50:44;3;1;
49914;PMS5003;35806;47.958;13.158;2023-05-10T07:53:12;1;1;
49914;PMS5003;35806;47.958;13.158;2023-05-10T07:55:39;1;1;
49914;PMS5003;35806;47.958;13.158;2023-05-10T07:58:07;0;0;
49914;PMS5003;35806;47.958;13.158;2023-05-10T08:00:34;1;1;
49914;PMS5003;35806;47.958;13.158;2023-05-10T08:03:02;0;0;
49914;PMS5003;35806;47.958;13.158;2023-05-10T08:05:29;0;0;
49914;PMS5003;35806;47.958;13.158;2023-05-10T08:07:57;0;0;
49914;PMS5003;35806;47.958;13.158;2023-05-10T08:10:24;0;0;
49914;PMS5003;35806;47.958;13.158;2023-05-10T08:12:52;0;0;
49914;PMS5003;35806;47.958;13.158;2023-05-10T08:15:24;0;0;
49914;PMS5003;35806;47.958;13.158;2023-05-10T08:17:57;0;0;
49914;PMS5003;35806;47.958;13.158;2023-05-10T08:20:25;1;0;
49914;PMS5003;35806;47.958;13.158;2023-05-10T08:22:52;0;0;
49914;PMS5003;35806;47.958;13.158;2023-05-10T08:25:20;0;0;
49914;PMS5003;35806;47.958;13.158;2023-05-10T08:27:48;0;0;
49914;PMS5003;35806;47.958;13.158;2023-05-10T08:30:15;1;1;
49914;PMS5003;35806;47.958;13.158;2023-05-10T08:32:43;0;0;
49914;PMS5003;35806;47.958;13.158;2023-05-10T08:35:10;0;0;
49914;PMS5003;35806;47.958;13.158;2023-05-10T08:37:39;1;1;
49914;PMS5003;35806;47.958;13.158;2023-05-10T08:40:07;1;1;
49914;PMS5003;35806;47.958;13.158;2023-05-10T08:42:39;1;1;
49914;PMS5003;35806;47.958;13.158;2023-05-10T08:45:11;0;0;
49914;PMS5003;35806;47.958;13.158;2023-05-10T08:47:40;0;0;
49914;PMS5003;35806;47.958;13.158;2023-05-10T08:50:08;0;0;
49914;PMS5003;35806;47.958;13.158;2023-05-10T08:52:38;1;1;
49914;PMS5003;35806;47.958;13.158;2023-05-10T08:55:07;0;0;
49914;PMS5003;35806;47.958;13.158;2023-05-10T08:57:40;3;2;
49914;PMS5003;35806;47.958;13.158;2023-05-10T09:00:09;1;1;
49914;PMS5003;35806;47.958;13.158;2023-05-10T09:02:40;1;1;
49914;PMS5003;35806;47.958;13.158;2023-05-10T09:05:09;2;1;
49914;PMS5003;35806;47.958;13.158;2023-05-10T09:07:36;0;0;
49914;PMS5003;35806;47.958;13.158;2023-05-10T09:10:05;1;1;
49914;PMS5003;35806;47.958;13.158;2023-05-10T09:12:34;0;0;
49914;PMS5003;35806;47.958;13.158;2023-05-10T09:15:13;1;1;
49914;PMS5003;35806;47.958;13.158;2023-05-10T09:17:42;3;1;
49914;PMS5003;35806;47.958;13.158;2023-05-10T09:20:12;3;2;
49914;PMS5003;35806;47.958;13.158;2023-05-10T09:22:39;1;1;
49914;PMS5003;35806;47.958;13.158;2023-05-10T09:25:12;1;1;
49914;PMS5003;35806;47.958;13.158;2023-05-10T09:27:43;2;2;
49914;PMS5003;35806;47.958;13.158;2023-05-10T09:30:15;1;1;
49914;PMS5003;35806;47.958;13.158;2023-05-10T09:32:54;2;1;
49914;PMS5003;35806;47.958;13.158;2023-05-10T09:35:29;2;2;
49914;PMS5003;35806;47.958;13.158;2023-05-10T09:37:58;1;1;
49914;PMS5003;35806;47.958;13.158;2023-05-10T09:40:29;3;3;
49914;PMS5003;35806;47.958;13.158;2023-05-10T09:42:58;3;3;
49914;PMS5003;35806;47.958;13.158;2023-05-10T09:45:27;15;13;
49914;PMS5003;35806;47.958;13.158;2023-05-10T09:47:55;4;4;
49914;PMS5003;35806;47.958;13.158;2023-05-10T09:50:23;4;4;
49914;PMS5003;35806;47.958;13.158;2023-05-10T09:52:51;4;3;
49914;PMS5003;35806;47.958;13.158;2023-05-10T09:55:20;4;4;
49914;PMS5003;35806;47.958;13.158;2023-05-10T09:57:49;5;5;
49914;PMS5003;35806;47.958;13.158;2023-05-10T10:00:35;5;5;
49914;PMS5003;35806;47.958;13.158;2023-05-10T10:03:13;3;3;
49914;PMS5003;35806;47.958;13.158;2023-05-10T10:05:42;6;5;
49914;PMS5003;35806;47.958;13.158;2023-05-10T10:08:11;6;6;
49914;PMS5003;35806;47.958;13.158;2023-05-10T10:10:42;6;6;
49914;PMS5003;35806;47.958;13.158;2023-05-10T10:13:16;8;8;
49914;PMS5003;35806;47.958;13.158;2023-05-10T10:15:44;7;7;
49914;PMS5003;35806;47.958;13.158;2023-05-10T10:18:12;8;7;
49914;PMS5003;35806;47.958;13.158;2023-05-10T10:20:40;8;7;
49914;PMS5003;35806;47.958;13.158;2023-05-10T10:23:16;5;5;
49914;PMS5003;35806;47.958;13.158;2023-05-10T10:25:46;7;7;
49914;PMS5003;35806;47.958;13.158;2023-05-10T10:28:18;5;5;
49914;PMS5003;35806;47.958;13.158;2023-05-10T10:30:52;7;7;
49914;PMS5003;35806;47.958;13.158;2023-05-10T10:33:29;7;7;
49914;PMS5003;35806;47.958;13.158;2023-05-10T10:36:05;9;6;
49914;PMS5003;35806;47.958;13.158;2023-05-10T10:38:37;9;8;
49914;PMS5003;35806;47.958;13.158;2023-05-10T10:41:27;6;6;
49914;PMS5003;35806;47.958;13.158;2023-05-10T10:44:22;7;7;
49914;PMS5003;35806;47.958;13.158;2023-05-10T10:46:59;6;6;
49914;PMS5003;35806;47.958;13.158;2023-05-10T10:49:30;9;8;
49914;PMS5003;35806;47.958;13.158;2023-05-10T10:52:18;6;6;
49914;PMS5003;35806;47.958;13.158;2023-05-10T10:54:50;5;5;
49914;PMS5003;35806;47.958;13.158;2023-05-10T10:57:26;7;7;
49914;PMS5003;35806;47.958;13.158;2023-05-10T11:00:17;9;9;
49914;PMS5003;35806;47.958;13.158;2023-05-10T11:02:49;7;7;
49914;PMS5003;35806;47.958;13.158;2023-05-10T11:05:33;10;9;
49914;PMS5003;35806;47.958;13.158;2023-05-10T11:08:10;8;8;
49914;PMS5003;35806;47.958;13.158;2023-05-10T11:10:48;11;8;
49914;PMS5003;35806;47.958;13.158;2023-05-10T11:13:26;11;9;
49914;PMS5003;35806;47.958;13.158;2023-05-10T11:16:20;13;13;
49914;PMS5003;35806;47.958;13.158;2023-05-10T11:18:53;7;7;
49914;PMS5003;35806;47.958;13.158;2023-05-10T11:19:14;7;7;
49914;PMS5003;35806;47.958;13.158;2023-05-10T11:21:45;7;7;
49914;PMS5003;35806;47.958;13.158;2023-05-10T11:24:26;6;6;
49914;PMS5003;35806;47.958;13.158;2023-05-10T11:26:59;9;9;
49914;PMS5003;35806;47.958;13.158;2023-05-10T11:29:26;9;9;
49914;PMS5003;35806;47.958;13.158;2023-05-10T11:31:56;8;8;
49914;PMS5003;35806;47.958;13.158;2023-05-10T11:34:24;8;7;
49914;PMS5003;35806;47.958;13.158;2023-05-10T11:36:53;8;8;
49914;PMS5003;35806;47.958;13.158;2023-05-10T11:39:25;9;8;
49914;PMS5003;35806;47.958;13.158;2023-05-10T11:41:52;8;8;
49914;PMS5003;35806;47.958;13.158;2023-05-10T11:44:20;8;8;
49914;PMS5003;35806;47.958;13.158;2023-05-10T11:46:47;11;8;
49914;PMS5003;35806;47.958;13.158;2023-05-10T11:49:16;7;7;
49914;PMS5003;35806;47.958;13.158;2023-05-10T11:51:43;7;7;
49914;PMS5003;35806;47.958;13.158;2023-05-10T11:54:11;7;7;
49914;PMS5003;35806;47.958;13.158;2023-05-10T11:56:39;7;7;
49914;PMS5003;35806;47.958;13.158;2023-05-10T11:59:07;5;5;
49914;PMS5003;35806;47.958;13.158;2023-05-10T12:01:34;6;6;
49914;PMS5003;35806;47.958;13.158;2023-05-10T12:04:02;8;8;
49914;PMS5003;35806;47.958;13.158;2023-05-10T12:06:30;7;7;
49914;PMS5003;35806;47.958;13.158;2023-05-10T12:08:58;3;3;
49914;PMS5003;35806;47.958;13.158;2023-05-10T12:11:26;7;7;
49914;PMS5003;35806;47.958;13.158;2023-05-10T12:13:54;5;5;
49914;PMS5003;35806;47.958;13.158;2023-05-10T12:16:23;7;7;
49914;PMS5003;35806;47.958;13.158;2023-05-10T12:18:51;7;7;
49914;PMS5003;35806;47.958;13.158;2023-05-10T12:21:20;5;4;
49914;PMS5003;35806;47.958;13.158;2023-05-10T12:23:48;7;7;
49914;PMS5003;35806;47.958;13.158;2023-05-10T12:26:17;5;5;
49914;PMS5003;35806;47.958;13.158;2023-05-10T12:28:47;6;6;
49914;PMS5003;35806;47.958;13.158;2023-05-10T12:31:15;7;7;
49914;PMS5003;35806;47.958;13.158;2023-05-10T12:33:42;5;5;
49914;PMS5003;35806;47.958;13.158;2023-05-10T12:36:10;6;6;
49914;PMS5003;35806;47.958;13.158;2023-05-10T12:38:39;5;5;
49914;PMS5003;35806;47.958;13.158;2023-05-10T12:41:13;5;5;
49914;PMS5003;35806;47.958;13.158;2023-05-10T12:43:42;9;9;
49914;PMS5003;35806;47.958;13.158;2023-05-10T12:46:10;5;5;
49914;PMS5003;35806;47.958;13.158;2023-05-10T12:48:39;7;7;
49914;PMS5003;35806;47.958;13.158;2023-05-10T12:51:08;7;7;
49914;PMS5003;35806;47.958;13.158;2023-05-10T12:53:43;8;8;
49914;PMS5003;35806;47.958;13.158;2023-05-10T12:54:10;8;8;
49914;PMS5003;35806;47.958;13.158;2023-05-10T12:56:43;8;8;
49914;PMS5003;35806;47.958;13.158;2023-05-10T12:59:11;8;6;
49914;PMS5003;35806;47.958;13.158;2023-05-10T13:01:44;3;3;
49914;PMS5003;35806;47.958;13.158;2023-05-10T13:04:17;5;5;
49914;PMS5003;35806;47.958;13.158;2023-05-10T13:06:45;4;4;
49914;PMS5003;35806;47.958;13.158;2023-05-10T13:09:13;5;5;
49914;PMS5003;35806;47.958;13.158;2023-05-10T13:11:40;5;5;
49914;PMS5003;35806;47.958;13.158;2023-05-10T13:14:13;6;6;
49914;PMS5003;35806;47.958;13.158;2023-05-10T13:16:46;6;6;
49914;PMS5003;35806;47.958;13.158;2023-05-10T13:19:15;5;5;
49914;PMS5003;35806;47.958;13.158;2023-05-10T13:21:43;8;8;
49914;PMS5003;35806;47.958;13.158;2023-05-10T13:24:10;6;6;
49914;PMS5003;35806;47.958;13.158;2023-05-10T13:26:38;7;7;
49914;PMS5003;35806;47.958;13.158;2023-05-10T13:29:05;5;5;
49914;PMS5003;35806;47.958;13.158;2023-05-10T13:31:33;6;6;
49914;PMS5003;35806;47.958;13.158;2023-05-10T13:34:02;8;6;
49914;PMS5003;35806;47.958;13.158;2023-05-10T13:36:30;12;11;
49914;PMS5003;35806;47.958;13.158;2023-05-10T13:38:58;7;7;
49914;PMS5003;35806;47.958;13.158;2023-05-10T13:41:26;7;7;
49914;PMS5003;35806;47.958;13.158;2023-05-10T13:43:53;5;5;
49914;PMS5003;35806;47.958;13.158;2023-05-10T13:46:21;8;6;
49914;PMS5003;35806;47.958;13.158;2023-05-10T13:48:57;6;6;
49914;PMS5003;35806;47.958;13.158;2023-05-10T13:51:36;6;6;
49914;PMS5003;35806;47.958;13.158;2023-05-10T13:54:04;6;5;
49914;PMS5003;35806;47.958;13.158;2023-05-10T13:56:31;10;10;
49914;PMS5003;35806;47.958;13.158;2023-05-10T13:58:59;8;7;
49914;PMS5003;35806;47.958;13.158;2023-05-10T14:01:26;7;7;
49914;PMS5003;35806;47.958;13.158;2023-05-10T14:03:54;4;4;
49914;PMS5003;35806;47.958;13.158;2023-05-10T14:06:21;6;6;
49914;PMS5003;35806;47.958;13.158;2023-05-10T14:08:49;6;6;
49914;PMS5003;35806;47.958;13.158;2023-05-10T14:11:19;8;5;
49914;PMS5003;35806;47.958;13.158;2023-05-10T14:13:47;4;4;
49914;PMS5003;35806;47.958;13.158;2023-05-10T14:16:14;3;3;
49914;PMS5003;35806;47.958;13.158;2023-05-10T14:18:42;4;4;
49914;PMS5003;35806;47.958;13.158;2023-05-10T14:21:09;4;4;
49914;PMS5003;35806;47.958;13.158;2023-05-10T14:23:37;5;3;
49914;PMS5003;35806;47.958;13.158;2023-05-10T14:26:04;0;0;
49914;PMS5003;35806;47.958;13.158;2023-05-10T14:28:32;1;1;
49914;PMS5003;35806;47.958;13.158;2023-05-10T14:30:59;1;1;
49914;PMS5003;35806;47.958;13.158;2023-05-10T14:33:27;1;1;
49914;PMS5003;35806;47.958;13.158;2023-05-10T14:35:54;0;0;
49914;PMS5003;35806;47.958;13.158;2023-05-10T14:38:22;2;2;
49914;PMS5003;35806;47.958;13.158;2023-05-10T14:40:49;1;1;
49914;PMS5003;35806;47.958;13.158;2023-05-10T14:43:17;1;1;
49914;PMS5003;35806;47.958;13.158;2023-05-10T14:45:47;3;3;
49914;PMS5003;35806;47.958;13.158;2023-05-10T14:48:15;1;1;
49914;PMS5003;35806;47.958;13.158;2023-05-10T14:50:42;1;1;
49914;PMS5003;35806;47.958;13.158;2023-05-10T14:53:09;1;1;
49914;PMS5003;35806;47.958;13.158;2023-05-10T14:55:36;4;3;
49914;PMS5003;35806;47.958;13.158;2023-05-10T14:58:04;1;1;
49914;PMS5003;35806;47.958;13.158;2023-05-10T15:00:31;2;2;
49914;PMS5003;35806;47.958;13.158;2023-05-10T15:02:59;2;2;
49914;PMS5003;35806;47.958;13.158;2023-05-10T15:05:31;2;2;
49914;PMS5003;35806;47.958;13.158;2023-05-10T15:08:20;1;1;
49914;PMS5003;35806;47.958;13.158;2023-05-10T15:10:48;3;3;
49914;PMS5003;35806;47.958;13.158;2023-05-10T15:13:23;4;3;
49914;PMS5003;35806;47.958;13.158;2023-05-10T15:15:50;3;3;
49914;PMS5003;35806;47.958;13.158;2023-05-10T15:18:19;2;2;
49914;PMS5003;35806;47.958;13.158;2023-05-10T15:20:45;1;1;
49914;PMS5003;35806;47.958;13.158;2023-05-10T15:23:12;1;1;
49914;PMS5003;35806;47.958;13.158;2023-05-10T15:25:40;1;1;
49914;PMS5003;35806;47.958;13.158;2023-05-10T15:28:07;1;1;
49914;PMS5003;35806;47.958;13.158;2023-05-10T15:30:35;7;6;
49914;PMS5003;35806;47.958;13.158;2023-05-10T15:33:08;2;2;
49914;PMS5003;35806;47.958;13.158;2023-05-10T15:35:36;33;29;
49914;PMS5003;35806;47.958;13.158;2023-05-10T15:38:04;41;37;
49914;PMS5003;35806;47.958;13.158;2023-05-10T15:40:30;10;8;
49914;PMS5003;35806;47.958;13.158;2023-05-10T15:42:57;12;12;
49914;PMS5003;35806;47.958;13.158;2023-05-10T15:45:25;3;3;
49914;PMS5003;35806;47.958;13.158;2023-05-10T15:48:04;2;1;
49914;PMS5003;35806;47.958;13.158;2023-05-10T15:50:43;5;5;
49914;PMS5003;35806;47.958;13.158;2023-05-10T15:53:10;4;4;
49914;PMS5003;35806;47.958;13.158;2023-05-10T15:55:37;2;2;
49914;PMS5003;35806;47.958;13.158;2023-05-10T15:58:05;2;2;
49914;PMS5003;35806;47.958;13.158;2023-05-10T16:00:32;5;5;
49914;PMS5003;35806;47.958;13.158;2023-05-10T16:03:00;3;3;
49914;PMS5003;35806;47.958;13.158;2023-05-10T16:05:27;3;3;
49914;PMS5003;35806;47.958;13.158;2023-05-10T16:07:55;3;3;
49914;PMS5003;35806;47.958;13.158;2023-05-10T16:10:22;2;2;
49914;PMS5003;35806;47.958;13.158;2023-05-10T16:12:50;4;3;
49914;PMS5003;35806;47.958;13.158;2023-05-10T16:15:19;4;3;
49914;PMS5003;35806;47.958;13.158;2023-05-10T16:18:05;6;4;
49914;PMS5003;35806;47.958;13.158;2023-05-10T16:20:44;4;4;
49914;PMS5003;35806;47.958;13.158;2023-05-10T16:23:13;6;5;
49914;PMS5003;35806;47.958;13.158;2023-05-10T16:25:40;8;5;
49914;PMS5003;35806;47.958;13.158;2023-05-10T16:28:07;5;5;
49914;PMS5003;35806;47.958;13.158;2023-05-10T16:30:34;5;3;
49914;PMS5003;35806;47.958;13.158;2023-05-10T16:33:02;5;5;
49914;PMS5003;35806;47.958;13.158;2023-05-10T16:35:29;8;4;
49914;PMS5003;35806;47.958;13.158;2023-05-10T16:37:57;4;4;
49914;PMS5003;35806;47.958;13.158;2023-05-10T16:40:27;3;3;
49914;PMS5003;35806;47.958;13.158;2023-05-10T16:42:54;5;5;
49914;PMS5003;35806;47.958;13.158;2023-05-10T16:45:23;6;5;
49914;PMS5003;35806;47.958;13.158;2023-05-10T16:47:51;3;3;
49914;PMS5003;35806;47.958;13.158;2023-05-10T16:50:18;8;4;
49914;PMS5003;35806;47.958;13.158;2023-05-10T16:52:46;4;4;
49914;PMS5003;35806;47.958;13.158;2023-05-10T16:55:15;7;5;
49914;PMS5003;35806;47.958;13.158;2023-05-10T16:57:53;4;4;
49914;PMS5003;35806;47.958;13.158;2023-05-10T17:00:21;5;3;
49914;PMS5003;35806;47.958;13.158;2023-05-10T17:02:49;3;3;
49914;PMS5003;35806;47.958;13.158;2023-05-10T17:05:15;4;4;